Time;durP1;ratioP1;P1;durP2;ratioP2;P2;SDS_P1;SDS_P2;PMS_P1;PMS_P2;Temp;Humidity;BMP_temperature;BMP_pressure;BME280_temperature;BME280_humidity;BME280_pressure;Samples;Min_cycle;Max_cycle;Signal;HPM_P1;HPM_P2
2021/10/24 00:00:50;;;;;;;5.35;2.95;;;;;;;6.70;100.00;95972.44;5105981;27;20105;-71
2021/10/24 00:03:17;;;;;;;5.07;3.38;;;;;;;6.68;100.00;95972.63;5114671;27;20872;-71
2021/10/24 00:05:44;;;;;;;7.07;4.15;;;;;;;6.68;100.00;95977.78;5116320;27;20043;-71
2021/10/24 00:08:10;;;;;;;7.82;4.72;;;;;;;6.60;100.00;95984.84;5111764;27;20043;-72
2021/10/24 00:10:37;;;;;;;7.22;4.40;;;;;;;6.66;100.00;95992.69;5112960;27;20466;-71
2021/10/24 00:13:04;;;;;;;8.85;4.25;;;;;;;6.68;100.00;95982.97;5111729;27;20048;-72
2021/10/24 00:15:31;;;;;;;9.60;5.60;;;;;;;6.59;100.00;95984.03;5094218;27;20039;-72
2021/10/24 00:17:58;;;;;;;8.70;4.97;;;;;;;6.54;100.00;95980.38;5110252;27;20462;-72
2021/10/24 00:20:25;;;;;;;9.23;4.90;;;;;;;6.58;100.00;95982.41;5116034;27;20047;-72
2021/10/24 00:22:52;;;;;;;15.02;6.47;;;;;;;6.66;100.00;95990.13;5114246;27;20039;-71
2021/10/24 00:25:18;;;;;;;8.90;5.45;;;;;;;6.65;100.00;95991.09;5119077;27;20035;-71
2021/10/24 00:27:45;;;;;;;8.85;5.72;;;;;;;6.66;100.00;95990.13;5119603;27;20063;-71
2021/10/24 00:30:12;;;;;;;10.57;5.20;;;;;;;6.66;100.00;95990.13;5119118;27;20046;-71
2021/10/24 00:32:39;;;;;;;7.97;4.63;;;;;;;6.60;100.00;95980.44;5115428;27;20094;-71
2021/10/24 00:35:07;;;;;;;8.38;4.45;;;;;;;6.70;100.00;96006.88;5114600;27;20057;-72
2021/10/24 00:37:34;;;;;;;9.75;5.38;;;;;;;6.72;100.00;95998.13;5113250;27;20089;-72
2021/10/24 00:40:01;;;;;;;10.88;5.63;;;;;;;6.73;100.00;95995.38;5096135;28;20097;-72
2021/10/24 00:42:48;;;;;;;9.07;5.38;;;;;;;6.67;100.00;95996.09;5100923;28;20042;-72
2021/10/24 00:45:15;;;;;;;10.88;6.13;;;;;;;6.68;100.00;96001.09;5115000;27;20040;-72
2021/10/24 00:47:43;;;;;;;12.15;6.38;;;;;;;6.55;100.00;95987.13;5123385;27;20040;-72
2021/10/24 00:50:10;;;;;;;9.45;5.38;;;;;;;6.67;100.00;95991.69;5117504;27;20123;-72
2021/10/24 00:52:39;;;;;;;9.70;5.68;;;;;;;6.74;100.00;95996.19;5094432;27;20058;-73
2021/10/24 00:55:07;;;;;;;9.35;5.10;;;;;;;6.66;100.00;95979.75;5113075;27;20043;-73
2021/10/24 00:57:36;;;;;;;9.60;5.10;;;;;;;6.66;100.00;95994.47;5115581;27;20046;-73
2021/10/24 01:00:06;;;;;;;9.70;5.88;;;;;;;6.62;100.00;95991.44;5095756;27;20046;-73
2021/10/24 01:02:34;;;;;;;11.52;6.10;;;;;;;6.52;100.00;95985.72;5108510;27;20043;-72
2021/10/24 01:05:05;;;;;;;12.18;6.82;;;;;;;6.60;100.00;95990.81;5088611;28;20051;-73
2021/10/24 01:07:38;;;;;;;11.15;6.25;;;;;;;6.45;100.00;95988.22;5105460;27;20059;-73
2021/10/24 01:10:07;;;;;;;10.50;6.95;;;;;;;6.52;100.00;95998.66;5089062;27;20071;-73
2021/10/24 01:12:37;;;;;;;11.40;7.03;;;;;;;6.39;100.00;95994.09;5104264;27;20500;-73
2021/10/24 01:15:04;;;;;;;10.15;6.03;;;;;;;6.40;100.00;95994.91;5074364;28;20501;-73
2021/10/24 01:17:31;;;;;;;14.40;7.70;;;;;;;6.39;100.00;96004.44;5103991;27;20043;-73
2021/10/24 01:19:58;;;;;;;14.68;7.90;;;;;;;6.29;100.00;95994.31;5106246;27;20036;-73
2021/10/24 01:22:26;;;;;;;11.35;6.85;;;;;;;6.35;100.00;96007.56;5090864;27;20053;-72
2021/10/24 01:24:53;;;;;;;12.50;6.38;;;;;;;6.35;100.00;96012.72;5088530;28;20384;-73
2021/10/24 01:27:21;;;;;;;16.52;9.10;;;;;;;6.22;100.00;96003.78;5104649;28;20528;-73
2021/10/24 01:29:48;;;;;;;13.48;8.18;;;;;;;6.24;100.00;96022.50;5106606;27;20045;-73
2021/10/24 01:32:15;;;;;;;12.10;6.60;;;;;;;6.27;100.00;96022.16;5088122;28;20077;-73
2021/10/24 01:34:46;;;;;;;13.50;7.65;;;;;;;6.27;100.00;96016.19;5086368;28;20040;-73
2021/10/24 01:37:14;;;;;;;14.65;8.32;;;;;;;6.23;100.00;96005.38;5083530;28;20055;-73
2021/10/24 01:39:41;;;;;;;15.90;8.95;;;;;;;6.29;100.00;95996.91;5103786;28;20044;-73
2021/10/24 01:42:08;;;;;;;15.50;8.43;;;;;;;6.32;100.00;96009.50;5108162;28;20052;-73
2021/10/24 01:44:37;;;;;;;15.00;7.70;;;;;;;6.46;100.00;96009.72;5093710;28;20038;-72
2021/10/24 01:47:04;;;;;;;13.70;7.93;;;;;;;6.52;100.00;96006.44;5097832;27;20097;-73
2021/10/24 01:49:34;;;;;;;14.07;8.30;;;;;;;6.56;100.00;96015.44;5096688;28;20176;-73
2021/10/24 01:52:02;;;;;;;16.60;9.02;;;;;;;6.42;100.00;96003.28;5094800;28;20072;-73
2021/10/24 01:54:31;;;;;;;16.00;7.82;;;;;;;6.49;100.00;96006.78;5092782;27;20042;-73
2021/10/24 01:56:58;;;;;;;16.58;8.50;;;;;;;6.26;100.00;95999.84;5095101;27;20039;-73
2021/10/24 01:59:27;;;;;;;17.90;8.02;;;;;;;6.43;100.00;96015.25;5095474;27;20134;-73
2021/10/24 02:02:33;;;;;;;12.95;7.55;;;;;;;6.49;100.00;96024.88;5108562;27;20052;-73
2021/10/24 02:05:19;;;;;;;19.17;8.65;;;;;;;6.49;100.00;96022.31;5108916;27;20531;-70
2021/10/24 02:07:46;;;;;;;14.88;8.00;;;;;;;6.52;100.00;96011.59;5090678;27;20039;-71
2021/10/24 02:10:17;;;;;;;14.70;7.88;;;;;;;6.50;100.00;96016.16;5096319;27;20092;-70
2021/10/24 02:12:44;;;;;;;17.17;7.80;;;;;;;6.43;100.00;96030.78;5113274;27;20040;-69
2021/10/24 02:15:16;;;;;;;15.23;8.55;;;;;;;6.40;100.00;96031.13;5093493;28;20058;-70
2021/10/24 02:17:43;;;;;;;15.25;7.57;;;;;;;6.31;100.00;96036.34;5093381;28;20055;-70
2021/10/24 02:20:11;;;;;;;16.15;7.90;;;;;;;6.19;100.00;96024.81;5094237;27;20063;-70
2021/10/24 02:22:38;;;;;;;15.65;9.13;;;;;;;6.15;100.00;96036.47;5095944;27;20046;-70
2021/10/24 02:25:16;;;;;;;17.02;8.27;;;;;;;6.30;100.00;96042.53;5091626;28;20104;-70
2021/10/24 02:27:45;;;;;;;14.65;7.40;;;;;;;6.20;100.00;96026.44;5092686;27;20047;-71
2021/10/24 02:30:13;;;;;;;16.02;8.35;;;;;;;6.17;100.00;96029.34;5093615;27;20074;-71
2021/10/24 02:32:42;;;;;;;16.33;7.82;;;;;;;6.23;100.00;96049.38;5076755;27;20048;-70
2021/10/24 02:35:11;;;;;;;18.30;8.43;;;;;;;6.21;100.00;96048.75;5094847;27;20536;-71
2021/10/24 02:37:43;;;;;;;16.65;8.23;;;;;;;6.22;100.00;96050.34;5095582;28;20043;-71
2021/10/24 02:40:16;;;;;;;20.67;8.52;;;;;;;6.23;100.00;96049.38;5091284;27;20079;-71
2021/10/24 02:42:49;;;;;;;15.77;9.18;;;;;;;6.17;100.00;96055.22;5089508;28;20075;-71
2021/10/24 02:45:22;;;;;;;17.90;9.50;;;;;;;6.21;100.00;96059.09;5088011;28;20050;-71
2021/10/24 02:47:49;;;;;;;19.55;8.60;;;;;;;6.22;100.00;96068.44;5086954;28;20508;-71
2021/10/24 02:50:17;;;;;;;15.35;8.50;;;;;;;6.16;100.00;96051.03;5077372;27;20435;-73
2021/10/24 02:52:45;;;;;;;19.85;9.52;;;;;;;6.28;100.00;96059.19;5086910;27;20059;-73
2021/10/24 02:55:12;;;;;;;18.90;9.75;;;;;;;6.28;100.00;96069.53;5091525;28;20040;-72
2021/10/24 02:57:39;;;;;;;25.38;10.18;;;;;;;6.16;100.00;96056.22;5093044;27;20405;-72
2021/10/24 03:00:07;;;;;;;18.17;9.73;;;;;;;6.24;100.00;96066.47;5108348;27;20071;-73
2021/10/24 03:02:36;;;;;;;15.18;9.15;;;;;;;6.28;100.00;96065.19;5088705;28;20062;-73
2021/10/24 03:05:06;;;;;;;21.20;9.50;;;;;;;6.34;100.00;96062.84;5088230;27;20043;-72
2021/10/24 03:07:33;;;;;;;16.17;8.18;;;;;;;6.22;100.00;96065.84;5087518;28;20569;-72
2021/10/24 03:10:01;;;;;;;20.40;10.35;;;;;;;6.24;100.00;96063.91;5089772;28;20135;-73
2021/10/24 03:12:29;;;;;;;18.27;9.25;;;;;;;6.25;100.00;96065.53;5086259;28;20063;-72
2021/10/24 03:14:56;;;;;;;17.27;9.45;;;;;;;6.28;100.00;96070.34;5089695;27;20051;-73
2021/10/24 03:17:25;;;;;;;23.75;11.60;;;;;;;6.27;100.00;96073.13;5105114;27;20039;-73
2021/10/24 03:19:52;;;;;;;21.90;9.80;;;;;;;6.05;100.00;96043.66;5089028;28;20043;-73
2021/10/24 03:22:19;;;;;;;15.93;8.48;;;;;;;6.24;100.00;96074.25;5087634;28;20116;-74
2021/10/24 03:24:46;;;;;;;22.08;10.77;;;;;;;6.20;100.00;96073.00;5120833;27;20074;-74
2021/10/24 03:27:13;;;;;;;22.05;10.30;;;;;;;6.21;100.00;96077.19;5087395;27;20118;-73
2021/10/24 03:29:42;;;;;;;21.10;10.77;;;;;;;6.24;100.00;96074.25;5090302;28;20043;-74
2021/10/24 03:32:09;;;;;;;21.38;10.43;;;;;;;6.34;100.00;96068.03;5088522;27;20036;-74
2021/10/24 03:34:36;;;;;;;26.83;10.13;;;;;;;6.28;100.00;96064.34;5110810;27;20039;-73
2021/10/24 03:37:03;;;;;;;21.98;11.50;;;;;;;6.39;100.00;96078.66;5092831;27;20040;-73
2021/10/24 03:39:33;;;;;;;27.15;12.68;;;;;;;6.37;100.00;96071.06;5092401;28;20040;-73
2021/10/24 03:42:03;;;;;;;18.98;11.63;;;;;;;6.47;100.00;96073.44;5090375;27;20491;-73
2021/10/24 03:44:30;;;;;;;22.20;11.52;;;;;;;6.56;100.00;96076.78;5111159;27;20051;-74
2021/10/24 03:46:57;;;;;;;17.75;10.85;;;;;;;6.64;100.00;96074.88;5103300;28;20500;-74
2021/10/24 03:49:27;;;;;;;21.60;11.32;;;;;;;6.73;100.00;96078.22;5087175;27;20039;-74
2021/10/24 03:51:54;;;;;;;17.67;9.55;;;;;;;6.68;100.00;96071.00;5091701;27;20089;-73
2021/10/24 03:54:21;;;;;;;19.83;10.95;;;;;;;6.64;100.00;96082.66;5088566;27;20043;-74
2021/10/24 03:56:48;;;;;;;20.90;10.60;;;;;;;6.61;100.00;96067.50;5089108;28;20104;-74
2021/10/24 03:59:15;;;;;;;21.73;10.25;;;;;;;6.50;100.00;96066.13;5094045;27;20039;-74
2021/10/24 04:01:42;;;;;;;23.50;11.90;;;;;;;6.47;100.00;96068.25;5089287;28;20043;-74
2021/10/24 04:04:09;;;;;;;21.15;11.57;;;;;;;6.38;100.00;96079.66;5075224;28;20039;-74
2021/10/24 04:06:38;;;;;;;23.20;12.02;;;;;;;6.27;100.00;96058.38;5089320;28;20039;-74
2021/10/24 04:09:06;;;;;;;25.33;11.75;;;;;;;6.22;100.00;96070.22;5091924;27;20043;-73
2021/10/24 04:11:34;;;;;;;20.50;11.02;;;;;;;6.26;100.00;96074.06;5105538;27;20846;-74
2021/10/24 04:14:02;;;;;;;20.15;10.93;;;;;;;6.24;100.00;96063.91;5089335;27;20147;-74
2021/10/24 04:16:28;;;;;;;26.08;11.05;;;;;;;6.30;100.00;96063.22;5106412;27;20040;-74
2021/10/24 04:19:14;;;;;;;22.10;10.70;;;;;;;6.31;100.00;96075.16;5084890;28;20134;-74
2021/10/24 04:21:45;;;;;;;25.05;11.43;;;;;;;6.34;100.00;96068.03;5081765;28;20039;-74
2021/10/24 04:24:12;;;;;;;21.85;10.82;;;;;;;6.39;100.00;96070.91;5093611;28;20039;-74
2021/10/24 04:26:39;;;;;;;23.05;11.30;;;;;;;6.50;100.00;96070.50;5085070;28;20044;-74
2021/10/24 04:29:08;;;;;;;24.75;11.82;;;;;;;6.44;100.00;96069.41;5085785;27;20048;-74
2021/10/24 04:31:36;;;;;;;18.30;11.35;;;;;;;6.45;100.00;96057.28;5089628;28;20079;-74
2021/10/24 04:34:02;;;;;;;20.80;11.38;;;;;;;6.43;100.00;96067.00;5089869;28;20050;-74
2021/10/24 04:36:30;;;;;;;19.50;11.15;;;;;;;6.30;100.00;96073.56;5088867;28;20072;-74
2021/10/24 04:38:56;;;;;;;24.50;10.65;;;;;;;6.35;100.00;96085.19;5086111;27;20097;-74
2021/10/24 04:41:23;;;;;;;21.88;11.52;;;;;;;6.37;100.00;96089.19;5090690;28;20409;-74
2021/10/24 04:43:51;;;;;;;22.02;11.90;;;;;;;6.19;100.00;96089.47;5088492;28;20840;-74
2021/10/24 04:46:21;;;;;;;21.10;10.63;;;;;;;6.19;100.00;96088.69;5099802;28;20042;-74
2021/10/24 04:48:48;;;;;;;18.60;12.20;;;;;;;6.20;100.00;96088.50;5106742;27;20045;-73
2021/10/24 04:51:15;;;;;;;21.02;10.50;;;;;;;6.13;100.00;96077.25;5088472;28;20444;-74
2021/10/24 04:53:41;;;;;;;20.52;10.82;;;;;;;6.09;100.00;96081.16;5086670;28;20048;-74
2021/10/24 04:56:08;;;;;;;18.52;10.77;;;;;;;6.21;100.00;96100.47;5085816;28;20130;-74
2021/10/24 04:58:36;;;;;;;19.02;10.38;;;;;;;6.12;100.00;96091.13;5087011;27;20054;-75
2021/10/24 05:01:04;;;;;;;21.58;10.77;;;;;;;6.14;100.00;96091.81;5087038;27;20433;-74
2021/10/24 05:03:32;;;;;;;19.75;10.20;;;;;;;6.10;100.00;96104.28;5091588;27;20143;-74
2021/10/24 05:06:02;;;;;;;20.35;8.32;;;;;;;6.19;100.00;96107.59;5084203;28;20079;-74
2021/10/24 05:08:32;;;;;;;20.30;11.25;;;;;;;6.11;100.00;96110.25;5082868;28;20111;-75
2021/10/24 05:10:58;;;;;;;19.42;10.40;;;;;;;6.06;100.00;96109.94;5109585;27;20040;-75
2021/10/24 05:13:26;;;;;;;24.88;10.93;;;;;;;6.09;100.00;96107.81;5087370;28;20039;-75
2021/10/24 05:15:54;;;;;;;26.50;12.52;;;;;;;6.08;100.00;96110.56;5087792;28;20036;-75
2021/10/24 05:18:21;;;;;;;29.85;13.27;;;;;;;6.04;100.00;96109.31;5083804;28;20044;-75
2021/10/24 05:20:48;;;;;;;23.15;10.63;;;;;;;6.10;100.00;96124.97;5100365;28;20071;-75
2021/10/24 05:23:15;;;;;;;23.63;12.80;;;;;;;6.19;100.00;96123.09;5088852;28;20040;-75
2021/10/24 05:25:54;;;;;;;23.35;11.45;;;;;;;6.16;100.00;96128.66;5087828;28;20043;-75
2021/10/24 05:28:22;;;;;;;21.38;11.50;;;;;;;6.06;100.00;96136.59;5086101;28;20477;-75
2021/10/24 05:30:50;;;;;;;20.50;10.45;;;;;;;5.85;100.00;96111.34;5082759;28;20613;-74
2021/10/24 05:33:17;;;;;;;23.05;10.52;;;;;;;6.04;100.00;96140.34;5084090;28;20051;-74
2021/10/24 05:36:04;;;;;;;19.20;10.18;;;;;;;6.03;100.00;96128.38;5060527;28;20035;-74
2021/10/24 05:38:31;;;;;;;16.42;9.63;;;;;;;6.14;100.00;96146.13;5085593;28;20050;-74
2021/10/24 05:41:06;;;;;;;16.48;8.90;;;;;;;6.11;100.00;96141.28;5087673;28;20502;-75
2021/10/24 05:43:33;;;;;;;19.15;10.15;;;;;;;6.06;100.00;96143.56;5084947;28;20093;-75
2021/10/24 05:46:01;;;;;;;16.67;9.32;;;;;;;6.10;100.00;96156.00;5103103;28;20039;-74
2021/10/24 05:48:28;;;;;;;53.17;29.45;;;;;;;6.12;100.00;96158.41;5084745;28;20035;-75
2021/10/24 05:51:04;;;;;;;32.00;15.23;;;;;;;6.05;100.00;96154.88;5086420;28;20054;-74
2021/10/24 05:53:31;;;;;;;38.15;23.33;;;;;;;6.13;100.00;96160.03;5085364;28;20497;-75
2021/10/24 05:55:58;;;;;;;34.55;20.35;;;;;;;6.11;100.00;96162.78;5081891;28;20428;-75
2021/10/24 05:58:40;;;;;;;22.48;12.52;;;;;;;6.04;100.00;96161.84;5083189;28;20047;-75
2021/10/24 06:01:26;;;;;;;18.90;9.40;;;;;;;5.92;100.00;96158.81;5082661;28;20044;-75
2021/10/24 06:04:11;;;;;;;20.92;11.07;;;;;;;5.92;100.00;96168.31;5102687;28;20177;-75
2021/10/24 06:07:07;;;;;;;27.95;11.30;;;;;;;5.83;100.00;96171.94;5091167;28;20075;-75
2021/10/24 06:10:01;;;;;;;23.08;11.90;;;;;;;5.86;100.00;96172.41;5086654;28;20050;-75
2021/10/24 06:15:03;;;;;;;20.67;9.75;;;;;;;5.96;100.00;96180.00;5097564;28;20027;-75
2021/10/24 06:17:31;;;;;;;18.65;10.20;;;;;;;5.80;100.00;96178.25;5082204;28;20052;-75
2021/10/24 06:19:58;;;;;;;23.38;12.80;;;;;;;5.95;100.00;96193.84;5082375;28;20580;-75
2021/10/24 06:22:26;;;;;;;20.55;11.32;;;;;;;6.09;100.00;96200.16;5079027;28;20043;-75
2021/10/24 06:24:55;;;;;;;18.48;9.63;;;;;;;6.22;100.00;96205.56;5079184;28;20111;-75
2021/10/24 06:27:27;;;;;;;19.05;9.88;;;;;;;6.23;100.00;96207.19;5078773;28;20169;-74
2021/10/24 06:29:54;;;;;;;20.77;11.50;;;;;;;6.22;100.00;96210.75;5080662;28;20714;-75
2021/10/24 06:32:41;;;;;;;19.92;11.10;;;;;;;6.25;100.00;96200.06;5101660;27;20043;-74
2021/10/24 06:35:40;;;;;;;19.85;9.63;;;;;;;6.33;100.00;96206.97;5060208;27;20431;-75
2021/10/24 06:38:33;;;;;;;19.48;10.23;;;;;;;6.41;100.00;96208.69;5098628;28;20048;-74
2021/10/24 06:41:10;;;;;;;18.88;10.18;;;;;;;6.41;100.00;96213.88;5085165;28;20135;-76
2021/10/24 06:43:46;;;;;;;22.30;11.70;;;;;;;6.43;100.00;96211.94;5071047;27;20062;-75
2021/10/24 06:46:31;;;;;;;19.73;9.32;;;;;;;6.54;100.00;96208.94;5098075;27;20051;-75
2021/10/24 06:49:17;;;;;;;23.05;10.18;;;;;;;6.61;100.00;96209.88;5083216;28;20062;-76
2021/10/24 06:51:45;;;;;;;20.65;10.00;;;;;;;6.64;100.00;96225.03;5084256;28;20055;-75
2021/10/24 06:54:15;;;;;;;20.10;10.48;;;;;;;6.67;100.00;96214.34;5083384;28;20050;-75
2021/10/24 06:57:08;;;;;;;19.30;10.07;;;;;;;6.66;100.00;96201.56;5097833;28;20052;-74
2021/10/24 06:59:53;;;;;;;24.13;9.50;;;;;;;6.78;100.00;96215.75;5102846;27;20050;-75
2021/10/24 07:02:29;;;;;;;23.85;10.25;;;;;;;6.76;100.00;96207.34;5108399;27;20147;-74
2021/10/24 07:05:26;;;;;;;20.08;10.45;;;;;;;6.83;100.00;96217.81;5105782;27;20039;-75
2021/10/24 07:08:00;;;;;;;21.27;10.45;;;;;;;6.74;100.00;96203.31;5091329;28;20138;-75
2021/10/24 07:10:27;;;;;;;15.02;8.95;;;;;;;6.74;100.00;96208.50;5090565;27;20433;-75
2021/10/24 07:12:54;;;;;;;17.30;9.27;;;;;;;6.63;100.00;96194.97;5098971;28;20043;-75
2021/10/24 07:15:23;;;;;;;18.25;9.25;;;;;;;6.88;100.00;96216.31;5099846;27;20035;-75
2021/10/24 07:17:53;;;;;;;21.02;10.93;;;;;;;7.00;100.00;96214.13;5105077;27;20043;-73
2021/10/24 07:20:20;;;;;;;15.95;9.93;;;;;;;7.20;100.00;96221.41;5088733;28;20583;-74
2021/10/24 07:22:53;;;;;;;16.98;10.20;;;;;;;7.39;100.00;96220.91;5102495;27;20031;-74
2021/10/24 07:25:25;;;;;;;11.65;7.50;;;;;;;7.58;100.00;96205.81;5086690;27;20592;-74
2021/10/24 07:27:52;;;;;;;18.35;9.55;;;;;;;7.53;100.00;96190.00;5085669;28;20050;-74
2021/10/24 07:30:20;;;;;;;18.00;9.27;;;;;;;7.54;100.00;96199.38;5084365;28;20047;-73
2021/10/24 07:32:57;;;;;;;19.35;10.32;;;;;;;7.50;100.00;96198.13;5081857;28;21554;-74
2021/10/24 07:35:27;;;;;;;17.92;9.85;;;;;;;7.57;100.00;96209.41;5082062;27;20036;-73
2021/10/24 07:37:54;;;;;;;12.80;8.15;;;;;;;7.59;100.00;96217.81;5082018;28;20052;-74
2021/10/24 07:40:27;;;;;;;19.83;10.13;;;;;;;7.72;100.00;96222.38;5083277;28;20130;-75
2021/10/24 07:42:55;;;;;;;16.30;8.40;;;;;;;7.79;100.00;96208.50;5079824;28;20039;-74
2021/10/24 07:45:21;;;;;;;16.38;7.03;;;;;;;8.05;99.94;96222.81;5081088;28;20043;-75
2021/10/24 07:47:50;;;;;;;15.50;9.35;;;;;;;8.18;99.81;96211.81;5084840;28;20047;-75
2021/10/24 07:50:17;;;;;;;23.45;9.98;;;;;;;8.20;100.00;96195.03;5080003;28;20116;-75
2021/10/24 07:52:46;;;;;;;13.50;8.23;;;;;;;8.39;98.30;96211.84;5074564;28;20078;-75
2021/10/24 07:55:20;;;;;;;19.58;9.88;;;;;;;8.47;98.79;96205.75;5083497;28;20163;-74
2021/10/24 07:57:47;;;;;;;20.30;9.80;;;;;;;8.37;98.27;96211.22;5087233;28;20051;-67
2021/10/24 08:00:35;;;;;;;15.20;8.52;;;;;;;8.47;97.07;96221.34;5089001;28;20126;-68
2021/10/24 08:03:41;;;;;;;12.82;6.95;;;;;;;8.42;95.54;96208.09;5106599;27;20424;-67
2021/10/24 08:06:08;;;;;;;15.10;8.43;;;;;;;8.32;93.91;96199.75;5084232;28;20050;-67
2021/10/24 08:08:36;;;;;;;21.58;10.13;;;;;;;8.39;94.63;96218.81;5104192;27;20043;-68
2021/10/24 08:11:04;;;;;;;15.80;8.30;;;;;;;8.46;95.23;96222.31;5084163;27;20127;-68
2021/10/24 08:13:31;;;;;;;11.73;7.93;;;;;;;8.48;94.30;96225.56;5072543;27;21549;-68
2021/10/24 08:15:59;;;;;;;11.60;6.63;;;;;;;8.49;92.59;96219.38;5089583;27;20055;-68
2021/10/24 08:18:26;;;;;;;13.07;7.68;;;;;;;8.63;92.97;96224.72;5088248;28;20127;-67
2021/10/24 08:21:00;;;;;;;17.05;7.57;;;;;;;8.55;91.69;96229.03;5103984;27;21136;-68
2021/10/24 08:23:31;;;;;;;9.40;6.00;;;;;;;8.67;92.52;96231.13;5101230;27;20048;-74
2021/10/24 08:25:58;;;;;;;12.90;7.10;;;;;;;8.65;91.81;96233.13;5084681;27;20107;-74
2021/10/24 08:28:25;;;;;;;13.43;7.97;;;;;;;8.83;91.46;96236.09;5088510;27;20507;-74
2021/10/24 08:31:02;;;;;;;11.55;5.47;;;;;;;8.73;89.75;96236.41;5104254;27;20048;-73
2021/10/24 08:33:38;;;;;;;13.57;7.00;;;;;;;8.80;90.70;96236.47;5086153;28;20058;-75
2021/10/24 08:36:05;;;;;;;13.02;7.10;;;;;;;9.02;89.46;96228.66;5106390;27;20048;-72
2021/10/24 08:38:32;;;;;;;13.10;6.63;;;;;;;9.03;88.56;96227.69;5101666;27;20055;-72
2021/10/24 08:41:01;;;;;;;38.92;17.60;;;;;;;9.05;86.75;96207.50;5102544;27;20413;-73
2021/10/24 08:43:33;;;;;;;16.23;7.50;;;;;;;9.07;85.96;96221.13;5101419;28;20048;-73
2021/10/24 08:46:02;;;;;;;83.22;26.33;;;;;;;9.20;84.59;96226.44;5084172;28;20159;-73
2021/10/24 08:48:31;;;;;;;33.35;12.07;;;;;;;9.34;84.74;96230.72;5101929;28;20465;-74
2021/10/24 08:50:58;;;;;;;142.02;43.92;;;;;;;9.36;82.51;96220.13;5103813;27;20035;-74
2021/10/24 08:53:28;;;;;;;18.33;8.90;;;;;;;9.36;81.81;96215.75;5102213;27;20035;-74
2021/10/24 08:55:56;;;;;;;71.70;17.80;;;;;;;9.37;82.50;96222.56;5085506;28;20528;-73
2021/10/24 08:58:23;;;;;;;24.92;9.38;;;;;;;9.44;82.71;96232.22;5104070;27;20096;-74
2021/10/24 09:00:50;;;;;;;45.83;14.10;;;;;;;9.49;81.53;96245.44;5102291;28;20040;-74
2021/10/24 09:03:17;;;;;;;12.45;6.88;;;;;;;9.40;81.86;96230.97;5082693;28;20051;-74
2021/10/24 09:05:46;;;;;;;15.88;6.97;;;;;;;9.70;83.12;96248.00;5108148;27;20045;-74
2021/10/24 09:08:19;;;;;;;73.20;18.40;;;;;;;9.92;80.12;96224.50;5080845;28;20127;-74
2021/10/24 09:10:47;;;;;;;78.43;17.00;;;;;;;10.10;77.94;96237.81;5088632;28;20046;-74
2021/10/24 09:13:17;;;;;;;11.75;5.82;;;;;;;9.96;77.86;96236.16;5102732;27;20489;-75
2021/10/24 09:15:51;;;;;;;25.50;8.15;;;;;;;9.97;76.85;96237.75;5091183;28;20035;-74
2021/10/24 09:18:24;;;;;;;51.80;19.98;;;;;;;10.02;75.95;96231.97;5093013;27;20047;-73
2021/10/24 09:20:53;;;;;;;15.50;6.05;;;;;;;10.22;76.72;96234.66;5084453;28;20048;-74
2021/10/24 09:23:20;;;;;;;8.57;5.30;;;;;;;10.49;75.64;96236.38;5102863;28;20054;-74
2021/10/24 09:25:49;;;;;;;8.88;5.03;;;;;;;10.71;75.37;96228.44;5101715;28;20401;-74
2021/10/24 09:28:20;;;;;;;9.82;5.20;;;;;;;10.83;73.84;96234.69;5088448;28;20050;-74
2021/10/24 09:31:19;;;;;;;14.50;7.60;;;;;;;10.92;71.03;96229.28;5103569;27;20051;-74
2021/10/24 09:33:47;;;;;;;12.98;6.07;;;;;;;10.86;70.71;96231.69;5049140;27;20138;-74
2021/10/24 09:36:24;;;;;;;9.85;4.97;;;;;;;10.85;69.45;96230.06;5100993;28;20042;-73
2021/10/24 09:39:09;;;;;;;18.02;11.05;;;;;;;11.03;70.05;96236.53;5103836;28;20046;-75
2021/10/24 09:41:36;;;;;;;8.63;5.50;;;;;;;11.06;69.89;96241.34;5101955;28;20042;-75
2021/10/24 09:44:19;;;;;;;9.10;4.97;;;;;;;11.07;67.79;96238.53;5085358;28;20088;-74
2021/10/24 09:46:56;;;;;;;9.70;5.55;;;;;;;11.55;67.49;96247.97;5085726;28;20054;-75
2021/10/24 09:49:24;;;;;;;14.35;7.03;;;;;;;11.80;66.19;96237.69;5107213;28;20051;-75
2021/10/24 09:51:53;;;;;;;16.98;6.85;;;;;;;11.92;63.60;96230.09;5085619;28;20043;-74
2021/10/24 09:54:27;;;;;;;20.60;7.80;;;;;;;12.12;62.67;96234.44;5103205;28;20520;-75
2021/10/24 09:56:54;;;;;;;15.75;6.45;;;;;;;12.24;62.31;96227.56;5104774;28;20035;-75
2021/10/24 09:59:22;;;;;;;74.13;23.75;;;;;;;12.50;61.13;96223.25;5104345;28;20035;-75
2021/10/24 10:01:50;;;;;;;12.10;7.13;;;;;;;12.61;60.53;96227.81;5103893;28;20516;-75
2021/10/24 10:04:19;;;;;;;20.27;8.25;;;;;;;12.88;57.90;96227.66;5103148;27;20112;-76
2021/10/24 10:06:47;;;;;;;15.35;7.70;;;;;;;13.20;57.83;96231.88;5107090;27;20028;-74
2021/10/24 10:09:14;;;;;;;25.00;9.93;;;;;;;13.25;55.18;96233.03;5110427;27;20062;-75
2021/10/24 10:11:51;;;;;;;10.25;4.38;;;;;;;13.32;55.55;96228.56;5107392;27;20050;-75
2021/10/24 10:14:30;;;;;;;9.00;5.40;;;;;;;13.01;54.76;96227.56;5106306;27;20047;-75
2021/10/24 10:17:10;;;;;;;13.93;7.65;;;;;;;13.37;54.01;96228.75;5115327;27;20039;-74
2021/10/24 10:19:40;;;;;;;8.73;4.72;;;;;;;13.72;52.67;96217.75;5109689;27;20051;-74
2021/10/24 10:22:21;;;;;;;7.63;4.88;;;;;;;13.53;51.76;96220.34;5088960;27;20470;-73
2021/10/24 10:24:59;;;;;;;15.13;4.68;;;;;;;13.93;52.57;96208.69;5106655;28;20051;-74
2021/10/24 10:27:34;;;;;;;6.63;3.63;;;;;;;14.05;49.25;96227.09;5109966;27;20039;-74
2021/10/24 10:30:07;;;;;;;19.60;11.02;;;;;;;14.24;48.98;96223.47;5106460;27;20031;-74
2021/10/24 10:32:38;;;;;;;5.60;3.42;;;;;;;14.22;49.34;96222.88;5109249;27;20114;-74
2021/10/24 10:35:06;;;;;;;6.38;4.13;;;;;;;14.38;49.73;96215.44;5106752;27;20126;-74
2021/10/24 10:37:52;;;;;;;5.25;3.63;;;;;;;14.66;49.31;96215.72;5103655;27;20052;-74
2021/10/24 10:40:40;;;;;;;8.48;4.32;;;;;;;14.84;49.01;96211.44;5110749;27;20058;-74
2021/10/24 10:43:20;;;;;;;4.60;3.03;;;;;;;15.17;47.06;96212.75;5086832;28;20043;-74
2021/10/24 10:45:53;;;;;;;4.95;3.35;;;;;;;15.21;47.01;96203.41;5103637;27;20756;-73
2021/10/24 10:48:32;;;;;;;4.97;3.17;;;;;;;15.23;47.06;96217.09;5107967;27;20101;-73
2021/10/24 10:51:19;;;;;;;6.00;3.72;;;;;;;15.47;44.97;96218.72;5106796;27;20047;-74
2021/10/24 10:53:46;;;;;;;5.63;3.10;;;;;;;15.53;44.96;96217.03;5086671;28;20046;-74
2021/10/24 10:56:16;;;;;;;5.32;2.95;;;;;;;15.42;44.18;96217.81;5106120;27;23435;-74
2021/10/24 10:58:54;;;;;;;6.50;3.58;;;;;;;15.64;44.40;96212.78;5106097;27;20096;-76
2021/10/24 11:01:27;;;;;;;18.42;7.38;;;;;;;15.57;44.32;96222.63;5105969;27;20047;-74
2021/10/24 11:03:57;;;;;;;8.68;3.90;;;;;;;15.80;43.21;96214.75;5086423;28;20101;-75
2021/10/24 11:06:23;;;;;;;6.75;3.47;;;;;;;15.74;44.52;96207.81;5102951;27;20034;-73
2021/10/24 11:08:52;;;;;;;5.75;4.00;;;;;;;15.66;44.96;96205.47;5091199;27;20054;-74
2021/10/24 11:11:48;;;;;;;8.18;3.38;;;;;;;15.88;43.03;96202.31;5106690;27;20530;-73
2021/10/24 11:14:14;;;;;;;5.20;3.53;;;;;;;15.59;43.14;96196.91;5096914;27;20062;-73
2021/10/24 11:16:45;;;;;;;8.10;4.28;;;;;;;15.70;44.72;96196.13;5082832;27;20036;-67
2021/10/24 11:19:39;;;;;;;6.43;2.97;;;;;;;16.29;43.48;96203.94;5103596;27;20042;-66
2021/10/24 11:22:16;;;;;;;6.25;2.83;;;;;;;16.42;42.59;96193.16;5091719;27;20045;-67
2021/10/24 11:24:45;;;;;;;4.15;2.75;;;;;;;16.27;40.95;96205.19;5093006;27;20122;-67
2021/10/24 11:27:15;;;;;;;10.35;5.90;;;;;;;16.33;40.40;96178.78;5084740;27;20097;-67
2021/10/24 11:29:54;;;;;;;5.20;3.53;;;;;;;16.71;38.83;96195.78;5096945;27;20575;-67
2021/10/24 11:32:33;;;;;;;5.38;3.15;;;;;;;16.75;40.65;96194.28;5101671;27;20504;-67
2021/10/24 11:35:16;;;;;;;17.60;9.95;;;;;;;16.51;40.44;96180.44;5102252;28;20043;-68
2021/10/24 11:37:50;;;;;;;5.70;3.72;;;;;;;16.85;38.97;96192.88;5101172;27;20054;-68
2021/10/24 11:40:20;;;;;;;4.90;2.90;;;;;;;17.23;39.05;96186.13;5079829;28;20044;-68
2021/10/24 11:43:09;;;;;;;7.32;4.28;;;;;;;17.36;38.31;96185.81;5102053;28;20077;-68
2021/10/24 11:45:43;;;;;;;7.32;3.13;;;;;;;17.32;37.68;96180.25;5102978;27;20044;-68